createdAt,value
2018-11-20T00:01:00.706Z,77.06
2018-11-20T00:05:14.127Z,77.17
2018-11-20T00:09:35.995Z,77.19
2018-11-20T00:13:58.370Z,77.09
2018-11-20T00:18:31.098Z,77.07
2018-11-20T00:23:00.509Z,77.31
2018-11-20T00:27:39.328Z,77.44
2018-11-20T00:32:05.283Z,77.44
2018-11-20T00:36:28.665Z,77.39
2018-11-20T00:40:52.017Z,77.46
2018-11-20T00:45:15.892Z,77.71
2018-11-20T00:49:37.909Z,77.63
2018-11-20T00:54:00.192Z,77.92
2018-11-20T00:58:32.391Z,77.99
2018-11-20T01:02:55.459Z,78.32
2018-11-20T01:07:17.418Z,78.11
2018-11-20T01:11:43.925Z,78.40
2018-11-20T01:16:07.376Z,78.55
2018-11-20T01:20:29.475Z,78.65
2018-11-20T01:24:49.822Z,78.67
2018-11-20T01:29:07.126Z,78.50
2018-11-20T01:33:33.259Z,78.36
2018-11-20T01:37:59.130Z,78.45
2018-11-20T01:42:20.847Z,78.50
2018-11-20T01:46:53.170Z,78.41
2018-11-20T01:51:22.254Z,78.29
2018-11-20T01:56:03.639Z,78.15
2018-11-20T02:00:39.034Z,77.96
2018-11-20T02:05:02.298Z,77.90
2018-11-20T02:09:33.196Z,78.11
2018-11-20T02:14:03.301Z,78.16
2018-11-20T02:18:36.182Z,78.11
2018-11-20T02:23:02.056Z,78.27
2018-11-20T02:27:25.038Z,78.20
2018-11-20T02:31:38.075Z,78.18
2018-11-20T02:35:57.505Z,78.28
2018-11-20T02:40:19.870Z,78.22
2018-11-20T02:44:46.134Z,78.24
2018-11-20T02:49:09.467Z,78.07
2018-11-20T02:53:31.344Z,78.02
2018-11-20T02:58:09.988Z,78.09
2018-11-20T03:02:45.395Z,77.85
2018-11-20T03:07:06.950Z,77.90
2018-11-20T03:11:28.641Z,77.73
2018-11-20T03:15:50.900Z,77.68
2018-11-20T03:20:29.293Z,77.75
2018-11-20T03:24:55.802Z,77.64
2018-11-20T03:30:11.992Z,77.76
2018-11-20T03:34:34.153Z,77.72
2018-11-20T03:39:05.190Z,77.71
2018-11-20T03:43:20.324Z,77.99
2018-11-20T03:47:43.808Z,78.02
2018-11-20T03:52:04.193Z,78.03
2018-11-20T03:56:25.553Z,78.44
2018-11-20T04:00:41.961Z,78.47
2018-11-20T04:05:14.823Z,78.71
2018-11-20T04:09:27.281Z,78.78
2018-11-20T04:13:38.935Z,78.92
2018-11-20T04:18:05.395Z,79.29
2018-11-20T04:22:27.608Z,79.53
2018-11-20T04:27:02.944Z,79.64
2018-11-20T04:32:04.956Z,79.86
2018-11-20T04:36:25.013Z,80.12
2018-11-20T04:40:46.792Z,80.37
2018-11-20T04:45:21.895Z,80.44
2018-11-20T04:49:45.854Z,80.54
2018-11-20T04:54:09.812Z,80.53
2018-11-20T04:58:31.866Z,80.18
2018-11-20T05:03:07.584Z,80.21
2018-11-20T05:07:49.431Z,80.25
2018-11-20T05:12:21.627Z,80.03
2018-11-20T05:16:43.616Z,79.82
2018-11-20T05:21:18.989Z,79.49
2018-11-20T05:25:41.395Z,79.37
2018-11-20T05:30:03.145Z,79.30
2018-11-20T05:34:29.396Z,79.19
2018-11-20T05:39:01.849Z,78.95
2018-11-20T05:43:32.941Z,78.76
2018-11-20T05:47:56.326Z,78.78
2018-11-20T05:52:18.173Z,78.70
2018-11-20T05:56:41.509Z,78.83
2018-11-20T06:01:10.694Z,78.67
2018-11-20T06:05:49.664Z,77.90
2018-11-20T06:10:31.040Z,77.60
2018-11-20T06:14:56.178Z,77.27
2018-11-20T06:19:18.303Z,77.01
2018-11-20T06:23:32.390Z,76.82
2018-11-20T06:28:02.041Z,76.39
2018-11-20T06:32:17.484Z,75.85
2018-11-20T06:36:41.577Z,76.02
2018-11-20T06:41:13.930Z,75.72
2018-11-20T06:45:36.080Z,75.44
2018-11-20T06:50:00.867Z,75.11
2018-11-20T06:54:29.910Z,74.44
2018-11-20T06:58:59.335Z,74.49
2018-11-20T07:03:21.873Z,74.57
2018-11-20T07:07:38.737Z,74.54
2018-11-20T07:12:13.616Z,74.39
2018-11-20T07:17:14.949Z,74.45
2018-11-20T07:21:30.114Z,74.36
2018-11-20T07:26:05.741Z,74.17
2018-11-20T07:30:31.709Z,73.67
2018-11-20T07:34:58.009Z,73.67
2018-11-20T07:39:19.928Z,73.69
2018-11-20T07:43:43.450Z,73.40
2018-11-20T07:48:12.985Z,73.17
2018-11-20T07:52:39.084Z,73.27
2018-11-20T07:57:05.068Z,73.26
2018-11-20T08:01:17.915Z,73.30
2018-11-20T08:06:17.359Z,73.15
2018-11-20T08:10:46.471Z,73.10
2018-11-20T08:15:09.842Z,73.07
2018-11-20T08:19:51.128Z,72.81
2018-11-20T08:24:13.222Z,72.67
2018-11-20T08:28:39.671Z,72.54
2018-11-20T08:33:01.509Z,72.16
2018-11-20T08:37:27.904Z,71.95
2018-11-20T08:41:43.125Z,72.16
2018-11-20T08:46:09.279Z,72.23
2018-11-20T08:50:35.258Z,72.06
2018-11-20T08:55:04.525Z,72.67
2018-11-20T08:59:21.067Z,72.93
2018-11-20T09:03:46.921Z,73.41
2018-11-20T09:08:09.274Z,73.79
2018-11-20T09:13:39.616Z,74.10
2018-11-20T09:18:11.141Z,74.43
2018-11-20T09:22:33.688Z,74.30
2018-11-20T09:27:14.876Z,74.59
2018-11-20T09:31:40.657Z,74.75
2018-11-20T09:36:15.309Z,74.73
2018-11-20T09:40:52.929Z,75.04
2018-11-20T09:45:52.989Z,75.03
2018-11-20T09:50:19.718Z,75.25
2018-11-20T09:54:47.950Z,75.67
2018-11-20T09:59:08.863Z,75.98
2018-11-20T10:03:31.456Z,76.18
2018-11-20T10:07:42.989Z,76.31
2018-11-20T10:12:14.425Z,76.35
2018-11-20T10:16:46.133Z,76.37
2018-11-20T10:21:07.453Z,76.47
2018-11-20T10:25:45.190Z,76.83
2018-11-20T10:30:04.791Z,76.87
2018-11-20T10:34:42.504Z,76.72
2018-11-20T10:39:23.230Z,76.62
2018-11-20T10:43:44.902Z,76.77
2018-11-20T10:48:05.868Z,77.08
2018-11-20T10:52:20.422Z,76.93
2018-11-20T10:56:43.060Z,77.19
2018-11-20T11:01:04.022Z,77.08
2018-11-20T11:05:27.054Z,77.33
2018-11-20T11:09:47.999Z,77.28
2018-11-20T11:14:09.315Z,77.29
2018-11-20T11:18:30.553Z,77.28
2018-11-20T11:22:51.942Z,77.16
2018-11-20T11:27:17.830Z,77.00
2018-11-20T11:31:40.487Z,77.27
2018-11-20T11:36:09.186Z,77.12
2018-11-20T11:40:31.785Z,77.04
2018-11-20T11:44:53.069Z,76.97
2018-11-20T11:49:14.581Z,77.24
2018-11-20T11:53:43.031Z,77.32
2018-11-20T11:58:24.156Z,77.26
2018-11-20T12:07:35.442Z,77.03
2018-11-20T12:11:51.046Z,77.24
2018-11-20T12:16:08.818Z,77.34
2018-11-20T12:20:30.422Z,77.20
2018-11-20T12:24:55.675Z,77.27
2018-11-20T12:29:17.102Z,77.32
2018-11-20T12:33:38.367Z,77.27
2018-11-20T12:38:19.605Z,77.17
2018-11-20T12:42:44.381Z,77.43
2018-11-20T12:47:24.570Z,77.67
2018-11-20T12:51:53.636Z,77.61
2018-11-20T12:56:17.810Z,77.95
2018-11-20T13:00:30.540Z,78.22
2018-11-20T13:04:51.400Z,78.35
2018-11-20T13:09:16.489Z,78.54
2018-11-20T13:13:32.518Z,79.06
2018-11-20T13:18:03.592Z,79.05
2018-11-20T13:22:19.793Z,79.15
2018-11-20T13:26:41.064Z,79.34
2018-11-20T13:30:49.285Z,79.19
2018-11-20T13:35:10.251Z,79.21
2018-11-20T13:39:31.432Z,79.60
2018-11-20T13:43:54.092Z,79.53
2018-11-20T13:48:15.628Z,79.58
2018-11-20T13:52:56.125Z,79.58
2018-11-20T13:57:10.726Z,79.54
2018-11-20T14:01:51.656Z,79.85
2018-11-20T14:06:23.831Z,79.69
2018-11-20T14:10:48.626Z,79.61
2018-11-20T14:15:20.276Z,80.01
2018-11-20T14:19:40.113Z,80.63
2018-11-20T14:24:21.174Z,80.00
2018-11-20T14:28:43.812Z,80.19
2018-11-20T14:33:10.156Z,80.09
2018-11-20T14:37:35.451Z,80.63
2018-11-20T14:42:13.091Z,80.36
2018-11-20T14:46:47.869Z,80.32
2018-11-20T14:51:08.627Z,80.52
2018-11-20T14:55:38.670Z,80.98
2018-11-20T15:00:10.027Z,80.68
2018-11-20T15:04:31.958Z,80.51
2018-11-20T15:08:54.578Z,80.93
2018-11-20T15:13:10.603Z,81.23
2018-11-20T15:17:35.791Z,81.24
2018-11-20T15:22:14.128Z,81.34
2018-11-20T15:26:35.422Z,81.74
2018-11-20T15:30:56.818Z,82.00
2018-11-20T15:35:18.030Z,82.17
2018-11-20T15:39:34.312Z,81.78
2018-11-20T15:43:46.834Z,82.17
2018-11-20T15:48:08.588Z,82.08
2018-11-20T15:52:43.118Z,82.20
2018-11-20T15:57:23.966Z,82.59
2018-11-20T16:01:52.820Z,82.80
2018-11-20T16:06:13.989Z,82.60
2018-11-20T16:10:27.612Z,82.75
2018-11-20T16:14:58.980Z,82.71
2018-11-20T16:19:30.490Z,82.72
2018-11-20T16:23:53.216Z,82.97
2018-11-20T16:28:14.441Z,83.31
2018-11-20T16:32:37.066Z,83.44
2018-11-20T16:36:58.139Z,83.47
2018-11-20T16:41:19.361Z,83.77
2018-11-20T16:45:44.780Z,83.82
2018-11-20T16:50:08.042Z,83.77
2018-11-20T16:54:48.769Z,84.03
2018-11-20T16:59:09.686Z,83.98
2018-11-20T17:03:30.798Z,84.01
2018-11-20T17:08:14.275Z,83.94
2018-11-20T17:12:40.095Z,83.86
2018-11-20T17:17:05.366Z,83.86
2018-11-20T17:21:36.657Z,83.91
2018-11-20T17:25:57.673Z,83.89
2018-11-20T17:30:20.301Z,84.15
2018-11-20T17:35:01.080Z,84.06
2018-11-20T17:39:24.352Z,83.97
2018-11-20T17:43:48.796Z,84.00
2018-11-20T17:48:02.451Z,84.06
2018-11-20T17:52:21.812Z,84.04
2018-11-20T17:56:44.461Z,84.06
2018-11-20T18:01:05.866Z,83.98
2018-11-20T18:05:46.737Z,84.07
2018-11-20T18:10:09.052Z,84.00
2018-11-20T18:14:30.845Z,83.93
2018-11-20T18:18:56.300Z,84.09
2018-11-20T18:23:21.439Z,84.03
2018-11-20T18:27:53.266Z,84.00
2018-11-20T18:32:16.015Z,83.84
2018-11-20T18:36:44.007Z,83.93
2018-11-20T18:41:05.453Z,83.99
2018-11-20T18:45:28.343Z,83.91
2018-11-20T18:50:00.272Z,83.93
2018-11-20T18:54:35.109Z,84.06
2018-11-20T18:58:57.825Z,84.10
2018-11-20T19:03:11.533Z,83.89
2018-11-20T19:07:41.730Z,83.73
2018-11-20T19:11:54.904Z,83.62
2018-11-20T19:16:16.062Z,83.46
2018-11-20T19:20:39.146Z,83.55
2018-11-20T19:25:00.586Z,83.57
2018-11-20T19:29:21.710Z,83.72
2018-11-20T19:33:59.556Z,83.87
2018-11-20T19:38:28.896Z,83.77
2018-11-20T19:42:51.313Z,83.88
2018-11-20T19:47:12.284Z,83.93
2018-11-20T19:51:33.463Z,84.07
2018-11-20T19:56:02.136Z,84.03
2018-11-20T20:00:30.703Z,83.96
2018-11-20T20:04:51.945Z,84.13
2018-11-20T20:09:24.962Z,84.18
2018-11-20T20:13:59.640Z,84.23
2018-11-20T20:18:31.808Z,84.24
2018-11-20T20:22:45.194Z,84.31
2018-11-20T20:27:06.392Z,84.45
2018-11-20T20:31:28.023Z,84.60
2018-11-20T20:35:50.814Z,84.44
2018-11-20T20:40:31.367Z,84.43
2018-11-20T20:44:54.064Z,84.57
2018-11-20T20:49:16.442Z,84.57
2018-11-20T20:53:44.906Z,84.52
2018-11-20T20:58:13.432Z,84.47
2018-11-20T21:02:51.478Z,84.50
2018-11-20T21:07:14.192Z,84.30
2018-11-20T21:11:35.270Z,84.50
2018-11-20T21:15:58.482Z,84.54
2018-11-20T21:20:30.006Z,84.47
2018-11-20T21:25:10.972Z,84.47
2018-11-20T21:29:27.933Z,84.58
2018-11-20T21:33:56.528Z,84.66
2018-11-20T21:38:21.710Z,84.54
2018-11-20T21:42:50.215Z,84.68
2018-11-20T21:47:31.035Z,84.63
2018-11-20T21:51:52.507Z,84.62
2018-11-20T21:56:13.626Z,84.57
2018-11-20T22:00:49.325Z,84.47
2018-11-20T22:05:10.958Z,84.38
2018-11-20T22:09:32.146Z,84.36
2018-11-20T22:13:54.808Z,84.30
2018-11-20T22:18:15.836Z,84.24
2018-11-20T22:22:37.243Z,84.18
2018-11-20T22:27:02.741Z,84.14
2018-11-20T22:31:24.247Z,84.10
2018-11-20T22:36:01.937Z,84.06
2018-11-20T22:40:34.085Z,84.05
2018-11-20T22:45:07.675Z,83.92
2018-11-20T22:49:29.202Z,83.86
2018-11-20T22:53:57.581Z,83.77
2018-11-20T22:58:23.545Z,83.65
2018-11-20T23:02:47.751Z,83.59
2018-11-20T23:07:10.021Z,83.57
2018-11-20T23:11:13.678Z,83.62
2018-11-20T23:15:17.464Z,83.57
2018-11-20T23:19:21.109Z,83.61
2018-11-20T23:23:24.758Z,83.58
2018-11-20T23:27:28.366Z,83.62
2018-11-20T23:31:32.451Z,83.60
2018-11-20T23:35:36.119Z,83.54
2018-11-20T23:39:39.756Z,83.32
2018-11-20T23:43:43.377Z,83.31
2018-11-20T23:47:46.990Z,83.28
2018-11-20T23:51:51.230Z,83.16
2018-11-20T23:55:54.839Z,83.19
2018-11-20T23:59:58.503Z,83.15
